Share

Sitka, AK

Sitka Rocky Gutierrez (PASI) Elev 20 ft | 57.05 °N, 135.36 °W | Change Station

Current weather conditions updated 18 minutes ago

Overcast
Overcast
48 °F
Feels Like 48 °F
N
12
Wind Variable Wind from ESE
Sunrise 5:49 AM
Sunset 8:13 PM
Moon Waning Gibbous

Tomorrow is forecast to be Much Cooler than today. Cloudy, periods of rain.

Pressure 29.48 in
Visibility 10.0 miles
Clouds Overcast 9500 ft
Dew Point 35 °F
Humidity 61%
Rainfall 0.01 in
Snow Depth Not available.
UV 0 out of 16
Pollen Not available.
Air Quality Not available.
Flu Activity Sporadic
METAR PASI 170453Z 12010KT 10SM OVC095 09/02 A2948 RMK AO2 SLP981 T00890017

More Conditions Fewer Conditions

Pressure 29.48 in
Visibility 10.0 miles
Clouds Overcast 9500 ft
Dew Point 35 °F
Humidity 61%
Rainfall 0.01 in
Snow Depth Not available.
UV 0 out of 16
Pollen Not available.
Air Quality Not available.
Flu Activity Sporadic
METAR PASI 170453Z 12010KT 10SM OVC095 09/02 A2948 RMK AO2 SLP981 T00890017

More Conditions Fewer Conditions

10-Day Forecast

Almanac

Astronomy

Apr. 16, 2014 Rise Set
Actual Time 5:49 AM AKDT 8:13 PM AKDT
Civil Twilight 5:08 AM AKDT 8:55 PM AKDT
Nautical Twilight 4:14 AM AKDT 9:50 PM AKDT
Astronomical Twilight 3:06 AM AKDT 10:59 PM AKDT
Moon 10:25 PM AKDT (4/16) 6:29 AM AKDT (4/16)
Length of Visible Light 15h 47m
Length of Day
14h 23m
Tomorrow will be 4m 45s longer.
Waning Gibbous, 96% of the Moon is Illuminated
Apr 17
Waning Gibbous
Apr 22
Last Quarter
Apr 29
New
May 6
First Quarter
May 14
Full

Yesterday's Extremes

State Highs State Lows

Community

  • symphony in blue....
    symphony in blue....
  • Dawn Surprise
    Dawn Surprise
  • Yucca delight
    Yucca delight
  • Sunset inside of the Ocean
    Sunset inside of the Ocean
  • Lunar eclipse 15 April 2014
    Lunar eclipse 15 April 2014

WunderPhotos

Upload Photos

1,701,858 photos uploaded!

WunderBlogs® & News

Nearby

Snow Depth

Station Depth Elevation
Long Lake 100 in 820 ft
Upper Tsaina River 56 in 1750 ft
Moraine 10 in 2100 ft
Grandview 36 in 1100 ft
Grouse Creek Divide 27 in 700 ft

Coastal Water Temperatures

Place Temperature
No Stations Reporting

Earthquake Activity

City Distance Mag. Time & Date
No recent earthquake activity has been reported nearby.
Minimum magnitude displayed is 2.5.

Nearby Weather Stations

Station Location Temp. Windchill Dew Point Humidity Wind Precip. Elev Updated Type
CRN USGS SITKA MAGNETIC SITKA 1 NE AK , Sitka, AK 47 °F 47 °F - - North  at  - 0.00 in / hr 78 ft 8:15 PM AKDT MADIS

Show More Stations Show Fewer Stations

What do you think?

We're not finished. Please let us know what you like, what you don't like, and what you are still missing.